Flight Track Log - Related Links

Times and Time Zones

All times are in EST time to prevent confusion due to time zone crossing. See the CTL13 flight status page for this flight to view local times or setup timezone preferences in your user account.

Time Position Orientation Groundspeed Altitude Reporting Facility
EST Latitude Longitude Course Direction KTS MPH feet Rate Location/Type
Thu 11:15:22 PM 36.2014 -79.3500 29° Northeast 183 211 4,900  Level Washington Center
Thu 11:16:23 PM 36.2397 -79.3236 29° Northeast 190 219 5,500 650 Climbing Washington Center
Thu 11:17:22 PM 36.2869 -79.2872 32° Northeast 180 207 6,200 650 Climbing Washington Center
Thu 11:18:23 PM 36.3211 -79.2578 35° Northeast 174 200 6,800 344 Climbing Washington Center
Thu 11:19:00 PM 36.3016 -79.2695 29° Northeast  Level FlightAware Approximate
Thu 11:19:24 PM 36.3683 -79.2189 34° Northeast 179 206 6,900  Level Washington Center
Thu 11:20:00 PM 36.3453 -79.2393 29° Northeast  Level FlightAware Approximate
Thu 11:20:22 PM 36.4092 -79.1769 40° Northeast 179 206 6,900  Level Washington Center
Thu 11:21:23 PM 36.4356 -79.1342 53° Northeast 179 206 6,900  Level Washington Center
Thu 11:22:23 PM 36.4750 -79.0661 54° Northeast 189 217 6,900  Level Washington Center
Thu 11:23:24 PM 36.5078 -79.0158 51° Northeast 189 217 6,900  Level Washington Center
Thu 11:24:22 PM 36.5406 -78.9631 52° Northeast 189 217 6,900  Level Washington Center
Thu 11:25:22 PM 36.5733 -78.9050 55° Northeast 189 217 6,900  Level Washington Center
Thu 11:26:22 PM 36.6061 -78.8519 52° Northeast 189 217 6,900  Level Washington Center
Thu 11:27:22 PM 36.6389 -78.7992 52° Northeast 189 217 6,900  Level Washington Center
Thu 11:28:24 PM 36.6739 -78.7383 54° Northeast 194 223 6,900 49 Level Washington Center
Thu 11:29:24 PM 36.7044 -78.6825 56° Northeast 194 223 7,000  Climbing Washington Center
Thu 11:30:21 PM 36.7392 -78.6294 51° Northeast 189 217 6,900 -50 Descending Washington Center
Thu 11:31:24 PM 36.7700 -78.5736 55° Northeast 189 217 6,900  Level Washington Center
Thu 11:32:21 PM 36.8022 -78.5283 48° Northeast 189 217 6,900  Level Washington Center
Thu 11:33:21 PM 36.8350 -78.4725 54° Northeast 189 217 6,900  Level Washington Center
Thu 11:34:21 PM 36.8694 -78.4219 50° Northeast 189 217 6,900  Level Washington Center
Thu 11:35:21 PM 36.9000 -78.3658 56° Northeast 195 224 6,900  Level Washington Center
Thu 11:36:23 PM 36.9347 -78.3100 52° Northeast 189 217 6,900  Level Washington Center
Thu 11:37:21 PM 36.9694 -78.2486 55° Northeast 189 217 6,900  Level Washington Center
Thu 11:38:21 PM 37.0042 -78.1953 51° Northeast 189 217 6,900  Level Washington Center
Thu 11:39:24 PM 37.0322 -78.1442 55° Northeast 189 217 6,900  Level Washington Center
Thu 11:40:24 PM 37.0667 -78.0906 51° Northeast 189 217 6,900  Level Washington Center
Thu 11:41:24 PM 37.0992 -78.0344 54° Northeast 194 223 6,900  Level Washington Center
Thu 11:42:21 PM 37.1317 -77.9833 51° Northeast 189 217 6,900  Level Washington Center
Thu 11:43:21 PM 37.1661 -77.9272 52° Northeast 189 217 6,900 -49 Level Washington Center
Thu 11:44:23 PM 37.1983 -77.8733 53° Northeast 189 217 6,800 -347 Descending Washington Center
Thu 11:45:22 PM 37.2347 -77.8197 50° Northeast 189 217 6,200 -570 Descending Washington Center
Thu 11:47:22 PM 37.3167 -77.7000 49° Northeast 222 255 5,100 -533 Descending Potomac TRACON
Thu 11:48:22 PM 37.3500 -77.6333 58° Northeast 222 255 4,600 -500 Descending Potomac TRACON
Thu 11:49:10 PM 37.3833 -77.6000 38° Northeast 222 255 4,200 -444 Descending Potomac TRACON
Thu 11:50:10 PM 37.4333 -77.5667 28° Northeast 214 246 3,800 -190 Descending Potomac TRACON
Thu 11:51:16 PM 37.5000 -77.5167 31° Northeast 198 228 3,800 -200 Level Potomac TRACON
Thu 11:52:10 PM 37.5167 -77.4833 58° Northeast 193 222 3,400 -650 Descending Potomac TRACON
Thu 11:53:16 PM 37.5500 -77.4167 58° Northeast 197 227 2,500 -652 Descending Potomac TRACON
Thu 11:54:28 PM 37.5667 -77.3500 72° East 172 198 1,900 -524 Descending Potomac TRACON
Thu 11:55:22 PM 37.5500 -77.3167 122° Southeast 153 176 1,400 -789 Descending Potomac TRACON
Thu 11:56:22 PM 37.5333 -77.3167 180° South 113 130 400 -1,000 Descending Potomac TRACON
Thu 11:58:00 PM 37.5000 -77.3167 180° South  Level FlightAware Approximate
Fri 12:05:00 AM 37.5052 -77.3197 180° South  Level Estimated
Fri 12:06:00 AM 37.5000 -77.3167 180° South  Level FlightAware Approximate

Login

Don't have an account? Register now (free) for customized features, flight alerts, and more!